Time;durP1;ratioP1;P1;durP2;ratioP2;P2;SDS_P1;SDS_P2;PMS_P1;PMS_P2;Temp;Humidity;BMP_temperature;BMP_pressure;BME280_temperature;BME280_humidity;BME280_pressure;Samples;Min_cycle;Max_cycle;Signal;HPM_P1;HPM_P2
2022/06/09 00:02:03;;;;;;;17.30;3.90;;;14.60;99.90;;;;;;5093399;28;20472;-81
2022/06/09 00:04:34;;;;;;;28.92;3.97;;;14.70;99.90;;;;;;5094202;28;20015;-80
2022/06/09 00:07:07;;;;;;;14.93;3.05;;;14.80;99.90;;;;;;5093973;28;20027;-82
2022/06/09 00:09:37;;;;;;;13.00;3.20;;;14.70;99.90;;;;;;5093552;28;20470;-81
2022/06/09 00:12:03;;;;;;;19.77;3.85;;;14.60;99.90;;;;;;5094346;28;20105;-81
2022/06/09 00:14:30;;;;;;;15.65;4.18;;;14.50;99.90;;;;;;5098144;28;20024;-80
2022/06/09 00:16:56;;;;;;;20.73;3.65;;;14.60;99.90;;;;;;5101868;28;20062;-81
2022/06/09 00:19:21;;;;;;;10.38;3.55;;;14.60;99.90;;;;;;5096295;28;20468;-80
2022/06/09 00:21:47;;;;;;;18.40;3.47;;;14.60;99.90;;;;;;5081514;28;20028;-81
2022/06/09 00:24:13;;;;;;;15.48;3.65;;;14.60;99.90;;;;;;5077164;28;20050;-81
2022/06/09 00:26:39;;;;;;;16.10;3.22;;;14.50;99.90;;;;;;5083199;28;20028;-80
2022/06/09 00:29:05;;;;;;;14.95;4.03;;;14.40;99.90;;;;;;5090148;28;20468;-81
2022/06/09 00:31:31;;;;;;;11.77;3.65;;;14.50;99.90;;;;;;5093325;28;20031;-80
2022/06/09 00:33:57;;;;;;;14.02;3.65;;;14.40;99.90;;;;;;5092825;28;20020;-80
2022/06/09 00:36:22;;;;;;;14.32;3.97;;;14.30;99.90;;;;;;5079753;28;20495;-81
2022/06/09 00:38:48;;;;;;;15.95;4.47;;;14.30;99.90;;;;;;5092430;28;20483;-81
2022/06/09 00:41:13;;;;;;;11.43;3.53;;;14.20;99.90;;;;;;5093508;28;20098;-81
2022/06/09 00:43:44;;;;;;;20.25;4.18;;;14.10;99.90;;;;;;5092884;28;20035;-81
2022/06/09 00:46:28;;;;;;;11.90;3.28;;;14.20;99.90;;;;;;5089261;28;20016;-80
2022/06/09 00:49:04;;;;;;;8.80;3.42;;;14.20;99.90;;;;;;5084604;28;20034;-81
2022/06/09 00:51:35;;;;;;;12.88;3.72;;;14.10;99.90;;;;;;5092482;28;20019;-81
2022/06/09 00:54:16;;;;;;;13.63;3.17;;;14.00;99.90;;;;;;5093056;28;20111;-81
2022/06/09 00:56:46;;;;;;;14.93;3.97;;;14.10;99.90;;;;;;5092983;28;20044;-81
2022/06/09 00:59:15;;;;;;;14.73;3.60;;;14.10;99.90;;;;;;5091927;28;20122;-80
2022/06/09 01:01:41;;;;;;;14.38;3.30;;;14.20;99.90;;;;;;5087972;28;20033;-82
2022/06/09 01:04:10;;;;;;;7.32;3.10;;;14.30;99.90;;;;;;5083691;28;20081;-80
2022/06/09 01:06:43;;;;;;;19.90;2.92;;;14.30;99.90;;;;;;5092298;28;20016;-81
2022/06/09 01:09:18;;;;;;;10.35;3.05;;;14.30;99.90;;;;;;5098889;28;20046;-82
2022/06/09 01:11:48;;;;;;;12.77;3.45;;;14.40;99.90;;;;;;5078783;28;20058;-82
2022/06/09 01:14:17;;;;;;;10.32;3.08;;;14.30;99.90;;;;;;5082783;28;20021;-80
2022/06/09 01:17:05;;;;;;;8.95;3.30;;;14.40;99.90;;;;;;5089685;28;20043;-80
2022/06/09 01:20:08;;;;;;;8.38;2.63;;;14.20;99.90;;;;;;5092211;28;20020;-80
2022/06/09 01:22:49;;;;;;;12.45;2.90;;;14.10;99.90;;;;;;5070635;28;20036;-81
2022/06/09 01:25:26;;;;;;;8.82;2.97;;;14.00;99.90;;;;;;5092688;28;20024;-80
2022/06/09 01:28:04;;;;;;;13.57;3.03;;;14.00;99.90;;;;;;5078116;28;20024;-82
2022/06/09 01:30:47;;;;;;;10.07;3.10;;;13.80;99.90;;;;;;5092404;28;20028;-83
2022/06/09 01:33:28;;;;;;;9.63;3.20;;;13.90;99.90;;;;;;5092109;28;20391;-82
2022/06/09 01:36:04;;;;;;;4.97;2.65;;;13.80;99.90;;;;;;5092218;28;20023;-81
2022/06/09 01:38:30;;;;;;;9.60;2.72;;;13.80;99.90;;;;;;5092058;28;20495;-80
2022/06/09 01:40:55;;;;;;;12.02;3.00;;;13.80;99.90;;;;;;5091272;28;20057;-81
2022/06/09 01:43:21;;;;;;;10.88;3.28;;;13.70;99.90;;;;;;5084069;28;20032;-81
2022/06/09 01:46:06;;;;;;;6.28;2.72;;;13.80;99.90;;;;;;5072405;28;20031;-83
2022/06/09 01:48:32;;;;;;;6.97;2.58;;;13.80;99.90;;;;;;5080279;28;20028;-82
2022/06/09 01:51:07;;;;;;;7.45;2.60;;;12.90;99.90;;;;;;5091733;28;20028;-82
2022/06/09 01:53:47;;;;;;;7.70;2.50;;;13.60;99.90;;;;;;5092222;28;20032;-82
2022/06/09 01:56:29;;;;;;;9.95;2.67;;;13.60;99.90;;;;;;5091278;28;20031;-81
2022/06/09 01:59:19;;;;;;;3.92;2.63;;;13.60;99.90;;;;;;5092289;28;20469;-81
2022/06/09 02:01:57;;;;;;;7.20;2.45;;;13.60;99.90;;;;;;5091995;28;20063;-81
2022/06/09 02:04:30;;;;;;;8.75;3.17;;;13.70;99.90;;;;;;5096995;28;20024;-81
2022/06/09 02:06:56;;;;;;;11.25;2.60;;;13.80;99.90;;;;;;5087969;28;20111;-81
2022/06/09 02:09:29;;;;;;;7.45;2.78;;;13.80;99.90;;;;;;5072229;28;20052;-82
2022/06/09 02:11:57;;;;;;;8.65;2.55;;;13.80;99.90;;;;;;5076468;28;20428;-82
2022/06/09 02:14:27;;;;;;;9.95;2.90;;;13.70;99.90;;;;;;5092382;28;20024;-82
2022/06/09 02:16:54;;;;;;;7.05;2.72;;;13.70;99.90;;;;;;5076830;28;20516;-82
2022/06/09 02:19:22;;;;;;;4.45;2.85;;;13.60;99.90;;;;;;5092743;28;20040;-82
2022/06/09 02:21:47;;;;;;;10.07;2.67;;;13.60;99.90;;;;;;5079555;28;20407;-82
2022/06/09 02:24:13;;;;;;;10.35;2.83;;;13.50;99.90;;;;;;5075521;28;20021;-81
2022/06/09 02:26:38;;;;;;;11.95;3.85;;;13.50;99.90;;;;;;5092076;28;20020;-81
2022/06/09 02:29:05;;;;;;;6.85;3.15;;;13.50;99.90;;;;;;5089506;28;20053;-82
2022/06/09 02:31:31;;;;;;;8.80;2.75;;;13.50;99.90;;;;;;5080068;28;20020;-82
2022/06/09 02:33:56;;;;;;;9.45;3.13;;;13.50;99.90;;;;;;5091789;28;20035;-82
2022/06/09 02:36:23;;;;;;;6.53;3.00;;;13.50;99.90;;;;;;5091624;28;20170;-82
2022/06/09 02:38:48;;;;;;;4.57;2.50;;;13.60;99.90;;;;;;5079215;28;20075;-82
2022/06/09 02:41:14;;;;;;;5.82;3.40;;;13.60;99.90;;;;;;5094474;28;20047;-82
2022/06/09 02:43:41;;;;;;;8.75;2.78;;;13.70;99.90;;;;;;5091723;28;20040;-82
2022/06/09 02:46:07;;;;;;;4.55;2.78;;;13.80;99.90;;;;;;5077442;28;20429;-82
2022/06/09 02:48:32;;;;;;;6.43;3.63;;;14.00;99.90;;;;;;5092124;28;20024;-82
2022/06/09 02:51:14;;;;;;;6.82;2.67;;;14.00;99.90;;;;;;5091129;28;20103;-82
2022/06/09 02:53:39;;;;;;;8.38;3.30;;;14.10;99.90;;;;;;5087114;28;20075;-82
2022/06/09 02:56:05;;;;;;;10.20;3.75;;;14.00;99.90;;;;;;5091645;28;20028;-82
2022/06/09 02:58:31;;;;;;;8.15;2.92;;;14.10;99.90;;;;;;5090655;28;20040;-83
2022/06/09 03:00:56;;;;;;;6.07;2.35;;;14.10;99.90;;;;;;5091286;28;20051;-82
2022/06/09 03:03:22;;;;;;;11.40;3.60;;;14.10;99.90;;;;;;5091421;28;20375;-80
2022/06/09 03:05:47;;;;;;;4.40;2.50;;;14.10;99.90;;;;;;5090903;28;20487;-80
2022/06/09 03:08:13;;;;;;;9.02;3.45;;;14.10;99.90;;;;;;5088687;28;20070;-80
2022/06/09 03:10:39;;;;;;;6.10;2.50;;;14.10;99.90;;;;;;5083261;28;20024;-82
2022/06/09 03:13:06;;;;;;;7.93;2.95;;;14.10;99.90;;;;;;5093762;28;20031;-80
2022/06/09 03:15:32;;;;;;;6.35;2.78;;;14.20;99.90;;;;;;5095295;28;20103;-82
2022/06/09 03:17:57;;;;;;;6.10;2.25;;;14.30;99.90;;;;;;5094496;28;20119;-81
2022/06/09 03:20:26;;;;;;;5.63;2.65;;;14.30;99.90;;;;;;5094124;28;20700;-80
2022/06/09 03:22:53;;;;;;;9.38;2.67;;;14.30;99.90;;;;;;5082958;28;20067;-81
2022/06/09 03:25:19;;;;;;;6.63;2.15;;;14.20;99.90;;;;;;5092506;28;20031;-81
2022/06/09 03:27:44;;;;;;;9.45;2.67;;;14.30;99.90;;;;;;5094291;28;20024;-80
2022/06/09 03:30:11;;;;;;;6.00;1.60;;;14.30;99.90;;;;;;5094757;28;20028;-81
2022/06/09 03:32:36;;;;;;;4.65;1.63;;;14.40;99.90;;;;;;5094781;28;20024;-80
2022/06/09 03:35:03;;;;;;;8.48;2.28;;;14.50;99.90;;;;;;5095106;28;20032;-81
2022/06/09 03:37:29;;;;;;;4.05;1.73;;;14.60;99.90;;;;;;5095594;28;20388;-80
2022/06/09 03:39:54;;;;;;;8.13;1.70;;;14.70;99.90;;;;;;5095361;28;20016;-81
2022/06/09 03:42:20;;;;;;;4.53;1.63;;;14.70;99.90;;;;;;5094481;28;20028;-81
2022/06/09 03:44:46;;;;;;;7.03;1.83;;;14.70;99.90;;;;;;5085162;28;20020;-82
2022/06/09 03:47:11;;;;;;;5.45;1.70;;;14.80;99.90;;;;;;5089090;28;20035;-82
2022/06/09 03:49:37;;;;;;;7.72;2.08;;;14.80;99.90;;;;;;5091419;28;20050;-83
2022/06/09 03:52:03;;;;;;;3.22;1.23;;;14.80;99.90;;;;;;5077469;28;20025;-81
2022/06/09 03:54:29;;;;;;;4.10;1.77;;;14.90;99.90;;;;;;5083844;28;20020;-82
2022/06/09 03:56:54;;;;;;;4.95;1.65;;;15.00;99.90;;;;;;5098558;28;20123;-81
2022/06/09 03:59:20;;;;;;;6.70;1.70;;;15.10;99.90;;;;;;5094814;28;20522;-82
2022/06/09 04:01:46;;;;;;;5.70;1.45;;;15.10;99.90;;;;;;5092744;28;20031;-81
2022/06/09 04:04:11;;;;;;;5.75;1.73;;;15.10;99.90;;;;;;5093848;28;20051;-81
2022/06/09 04:06:37;;;;;;;3.05;1.40;;;15.00;99.90;;;;;;5094144;28;20028;-80
2022/06/09 04:09:04;;;;;;;6.15;1.30;;;15.00;99.90;;;;;;5095125;28;20035;-82
2022/06/09 04:11:30;;;;;;;4.10;1.38;;;14.90;99.90;;;;;;5075404;28;20051;-83
2022/06/09 04:13:56;;;;;;;5.45;1.83;;;14.80;99.90;;;;;;5085083;28;20020;-82
2022/06/09 04:16:25;;;;;;;7.28;2.03;;;14.80;99.90;;;;;;5093282;28;20035;-81
2022/06/09 04:18:52;;;;;;;3.13;1.42;;;14.80;99.90;;;;;;5093951;28;20487;-82
2022/06/09 04:21:19;;;;;;;4.03;1.90;;;14.90;99.90;;;;;;5079342;28;20107;-81
2022/06/09 04:23:45;;;;;;;3.63;1.13;;;14.80;99.90;;;;;;5086485;28;20059;-82
2022/06/09 04:26:17;;;;;;;1.70;1.10;;;14.90;99.90;;;;;;5087116;28;20060;-81
2022/06/09 04:28:43;;;;;;;1.30;0.90;;;14.90;99.90;;;;;;5080281;28;20026;-82
2022/06/09 04:31:09;;;;;;;3.50;1.15;;;14.80;99.90;;;;;;5108134;28;20025;-81
2022/06/09 04:33:35;;;;;;;2.33;0.95;;;14.90;99.90;;;;;;5108152;28;20020;-81
2022/06/09 04:36:01;;;;;;;3.10;1.05;;;14.80;99.90;;;;;;5106350;28;20047;-80
2022/06/09 04:38:27;;;;;;;3.92;1.42;;;14.90;99.90;;;;;;5107463;28;20040;-81
2022/06/09 04:40:52;;;;;;;4.13;1.40;;;15.00;99.90;;;;;;5107103;28;20369;-83
2022/06/09 04:43:18;;;;;;;4.13;1.10;;;15.00;99.90;;;;;;5104982;28;20049;-81
2022/06/09 04:45:43;;;;;;;1.75;1.00;;;15.00;99.90;;;;;;5105673;28;20024;-81
2022/06/09 04:48:10;;;;;;;0.93;0.70;;;15.00;99.90;;;;;;5094457;28;20387;-81
2022/06/09 04:50:36;;;;;;;4.95;1.02;;;15.00;99.90;;;;;;5096172;28;20582;-81
2022/06/09 04:53:03;;;;;;;2.47;0.70;;;14.90;99.90;;;;;;5088497;28;20044;-81
2022/06/09 04:55:29;;;;;;;3.35;0.82;;;14.80;99.90;;;;;;5106480;28;20025;-79
2022/06/09 04:57:55;;;;;;;3.28;0.85;;;14.90;99.90;;;;;;5100219;28;20032;-80
2022/06/09 05:00:21;;;;;;;4.18;1.27;;;15.00;99.90;;;;;;5100387;28;20048;-80
2022/06/09 05:02:47;;;;;;;2.90;1.10;;;15.00;99.90;;;;;;5098890;28;20027;-81
2022/06/09 05:05:29;;;;;;;2.92;1.10;;;15.10;99.90;;;;;;5107679;28;20066;-79
2022/06/09 05:07:55;;;;;;;3.92;1.45;;;15.20;99.90;;;;;;5104236;28;20479;-79
2022/06/09 05:10:21;;;;;;;4.03;1.30;;;15.20;99.90;;;;;;5102595;28;20039;-79
2022/06/09 05:12:47;;;;;;;6.15;2.15;;;15.30;99.90;;;;;;5093410;28;20027;-80
2022/06/09 05:15:16;;;;;;;2.67;1.33;;;15.30;99.90;;;;;;5102364;28;20024;-80
2022/06/09 05:17:42;;;;;;;4.25;1.80;;;15.30;99.90;;;;;;5108390;28;20432;-80
2022/06/09 05:20:10;;;;;;;5.93;2.53;;;15.30;99.90;;;;;;5104683;28;20023;-79
2022/06/09 05:22:36;;;;;;;3.97;1.85;;;15.40;99.90;;;;;;5107593;28;20020;-79
2022/06/09 05:25:02;;;;;;;1.90;1.42;;;15.40;99.90;;;;;;5104671;28;20019;-79
2022/06/09 05:27:28;;;;;;;5.25;1.40;;;15.40;99.90;;;;;;5106817;28;20038;-79
2022/06/09 05:29:53;;;;;;;6.13;2.17;;;15.40;99.90;;;;;;5104756;28;20020;-79
2022/06/09 05:32:19;;;;;;;8.90;1.55;;;15.40;99.90;;;;;;5101523;28;20020;-80
2022/06/09 05:34:45;;;;;;;2.17;1.10;;;15.40;99.90;;;;;;5108114;28;20375;-79
2022/06/09 05:37:10;;;;;;;6.20;1.50;;;15.50;99.90;;;;;;5103430;28;20088;-80
2022/06/09 05:45:06;;;;;;;1.85;1.20;;;15.50;99.90;;;;;;5113329;28;20111;-80
2022/06/09 05:47:31;;;;;;;1.38;1.15;;;15.40;99.90;;;;;;5103057;28;20114;-81
2022/06/09 05:49:57;;;;;;;1.48;0.98;;;15.40;99.90;;;;;;5107006;28;20111;-80
2022/06/09 05:52:28;;;;;;;1.50;1.00;;;15.40;99.90;;;;;;5101531;28;20027;-80
2022/06/09 05:54:53;;;;;;;3.10;1.20;;;15.40;99.90;;;;;;5105732;28;20172;-80
2022/06/09 05:57:21;;;;;;;2.03;0.73;;;15.30;99.90;;;;;;5103451;28;20438;-80
2022/06/09 05:59:48;;;;;;;1.23;0.82;;;15.30;99.90;;;;;;5104447;28;20403;-79
2022/06/09 06:02:15;;;;;;;1.92;0.70;;;15.20;99.90;;;;;;5106038;28;20032;-79
2022/06/09 06:04:41;;;;;;;1.15;0.77;;;15.20;99.90;;;;;;5103830;28;20058;-79
2022/06/09 06:07:07;;;;;;;1.73;0.80;;;15.10;99.90;;;;;;5094085;28;20059;-79
2022/06/09 06:09:33;;;;;;;2.60;0.73;;;15.00;99.90;;;;;;5100785;28;20020;-79
2022/06/09 06:11:58;;;;;;;1.90;0.90;;;15.00;99.90;;;;;;5104377;28;20016;-80
2022/06/09 06:14:24;;;;;;;1.88;0.88;;;15.00;99.90;;;;;;5103491;28;20479;-79
2022/06/09 06:16:50;;;;;;;2.80;0.80;;;15.00;99.90;;;;;;5104914;28;20035;-80
2022/06/09 06:19:18;;;;;;;1.48;0.98;;;15.00;99.90;;;;;;5103184;28;20483;-80
2022/06/09 06:21:45;;;;;;;1.67;1.23;;;14.90;99.90;;;;;;5104538;28;20024;-80
2022/06/09 06:24:11;;;;;;;4.45;1.67;;;14.90;99.90;;;;;;5099340;28;20024;-80
2022/06/09 06:26:38;;;;;;;3.70;1.65;;;14.90;99.90;;;;;;5099491;28;20031;-82
2022/06/09 06:29:05;;;;;;;4.47;2.10;;;14.80;99.90;;;;;;5109960;28;20156;-83
2022/06/09 06:31:31;;;;;;;2.83;1.70;;;14.80;99.90;;;;;;5109143;28;20092;-84
2022/06/09 06:33:58;;;;;;;3.15;1.60;;;14.80;99.90;;;;;;5106094;28;20472;-83
2022/06/09 06:36:23;;;;;;;3.45;1.48;;;14.70;99.90;;;;;;5104266;28;20081;-84
2022/06/09 06:38:49;;;;;;;2.70;1.50;;;14.60;99.90;;;;;;5091552;28;20032;-85
2022/06/09 06:41:16;;;;;;;2.38;1.70;;;14.60;99.90;;;;;;5096404;28;20032;-84
2022/06/09 06:43:43;;;;;;;2.35;1.65;;;14.60;99.90;;;;;;5098378;28;20036;-85
2022/06/09 06:46:09;;;;;;;3.00;1.48;;;14.60;99.90;;;;;;5100292;28;20016;-85
2022/06/09 06:48:35;;;;;;;5.07;1.20;;;14.50;99.90;;;;;;5100996;28;20015;-84
2022/06/09 06:51:01;;;;;;;1.85;1.08;;;14.50;99.90;;;;;;5105275;28;20105;-85
2022/06/09 06:53:27;;;;;;;2.05;1.05;;;14.50;99.90;;;;;;5110744;28;20085;-86
2022/06/09 06:55:52;;;;;;;2.10;0.90;;;14.50;99.90;;;;;;5107719;28;20020;-83
2022/06/09 06:58:18;;;;;;;2.25;1.30;;;14.50;99.90;;;;;;5109037;28;20050;-83
2022/06/09 07:00:44;;;;;;;1.30;1.20;;;14.60;99.90;;;;;;5111639;28;20111;-82
2022/06/09 07:03:11;;;;;;;3.63;1.40;;;14.70;99.90;;;;;;5113042;28;20106;-83
2022/06/09 07:05:37;;;;;;;2.85;1.20;;;14.90;99.90;;;;;;5108331;28;20020;-85
2022/06/09 07:08:04;;;;;;;4.40;1.23;;;15.10;99.90;;;;;;5107848;28;20361;-84
2022/06/09 07:10:33;;;;;;;4.20;1.50;;;15.30;99.90;;;;;;5109752;28;20352;-80
2022/06/09 07:12:59;;;;;;;3.85;1.75;;;15.50;99.90;;;;;;5108047;28;20625;-84
2022/06/09 07:15:25;;;;;;;2.90;1.75;;;15.60;99.90;;;;;;5111126;28;20475;-83
2022/06/09 07:17:51;;;;;;;3.00;1.90;;;15.80;99.90;;;;;;5105834;28;20043;-85
2022/06/09 07:20:16;;;;;;;3.45;1.77;;;16.00;99.90;;;;;;5116096;28;20030;-83
2022/06/09 07:22:43;;;;;;;6.15;2.40;;;16.20;99.90;;;;;;5099612;28;20032;-83
2022/06/09 07:25:13;;;;;;;4.22;2.33;;;16.30;99.90;;;;;;5100740;28;20067;-78
2022/06/09 07:27:39;;;;;;;4.25;2.10;;;16.50;99.90;;;;;;5096536;28;20046;-82
2022/06/09 07:30:06;;;;;;;4.90;2.50;;;16.60;99.90;;;;;;5098408;28;20534;-83
2022/06/09 07:32:32;;;;;;;3.78;2.20;;;16.60;99.90;;;;;;5105204;28;20039;-79
2022/06/09 07:34:58;;;;;;;3.28;2.13;;;16.70;99.90;;;;;;5113688;28;20035;-81
2022/06/09 07:37:23;;;;;;;3.63;2.60;;;16.80;99.90;;;;;;5106627;28;20036;-81
2022/06/09 07:39:49;;;;;;;2.10;1.90;;;16.90;99.90;;;;;;5107016;28;20068;-81
2022/06/09 07:42:15;;;;;;;3.28;2.28;;;16.90;99.90;;;;;;5105480;28;20077;-80
2022/06/09 07:44:41;;;;;;;2.53;1.42;;;16.90;99.90;;;;;;5104930;28;20031;-79
2022/06/09 07:47:06;;;;;;;2.72;1.60;;;16.90;99.90;;;;;;5098019;28;20028;-81
2022/06/09 07:49:33;;;;;;;4.20;1.38;;;16.80;99.90;;;;;;5106315;28;20027;-77
2022/06/09 07:51:59;;;;;;;3.15;1.65;;;16.70;99.90;;;;;;5109394;28;20110;-80
2022/06/09 07:54:25;;;;;;;3.97;1.52;;;16.80;99.90;;;;;;5105220;28;20028;-78
2022/06/09 07:56:50;;;;;;;2.40;1.85;;;16.80;99.90;;;;;;5105693;28;20030;-77
2022/06/09 07:59:16;;;;;;;6.30;2.65;;;16.90;99.90;;;;;;5107775;28;20078;-76
2022/06/09 08:01:42;;;;;;;4.60;1.60;;;17.10;99.90;;;;;;5106562;28;20057;-77
2022/06/09 08:04:08;;;;;;;5.00;2.40;;;17.10;99.90;;;;;;5109042;28;20027;-76
2022/06/09 08:06:33;;;;;;;5.68;2.42;;;17.20;99.90;;;;;;5107350;28;20490;-73
2022/06/09 08:09:00;;;;;;;6.85;2.47;;;17.40;99.90;;;;;;5100203;28;20122;-72
2022/06/09 08:11:29;;;;;;;4.03;2.47;;;17.40;99.90;;;;;;5108170;28;20422;-73
2022/06/09 08:13:56;;;;;;;5.18;2.63;;;17.50;99.90;;;;;;5108398;28;20029;-73
2022/06/09 08:16:22;;;;;;;6.32;2.75;;;17.60;99.90;;;;;;5109137;28;20031;-72
2022/06/09 08:18:48;;;;;;;10.75;2.95;;;17.70;99.90;;;;;;5109218;28;20027;-74
2022/06/09 08:21:14;;;;;;;8.98;2.55;;;17.80;99.90;;;;;;5108505;28;20026;-73
2022/06/09 08:23:39;;;;;;;9.45;3.20;;;17.60;99.90;;;;;;5107138;28;20020;-73
2022/06/09 08:26:05;;;;;;;6.50;2.50;;;17.50;99.90;;;;;;5100597;28;20020;-73
2022/06/09 08:28:32;;;;;;;6.93;2.38;;;17.40;99.90;;;;;;5105995;28;20020;-75
2022/06/09 08:30:58;;;;;;;6.35;2.80;;;17.30;99.90;;;;;;5106851;28;20020;-72
2022/06/09 08:33:25;;;;;;;9.32;2.63;;;17.20;99.90;;;;;;5103537;28;20019;-73
2022/06/09 08:35:51;;;;;;;8.07;3.17;;;17.30;99.90;;;;;;5100853;28;20046;-72
2022/06/09 08:38:17;;;;;;;4.10;2.58;;;17.40;99.90;;;;;;5105765;28;20042;-73
2022/06/09 08:41:03;;;;;;;12.55;2.90;;;17.40;99.90;;;;;;5103361;28;20110;-72
2022/06/09 08:43:37;;;;;;;4.75;2.60;;;17.50;99.90;;;;;;5103292;28;20028;-73
2022/06/09 08:46:26;;;;;;;11.73;2.80;;;17.60;99.90;;;;;;5108783;28;20059;-73
2022/06/09 08:48:55;;;;;;;9.18;2.42;;;17.80;99.90;;;;;;5104316;28;20032;-72
2022/06/09 08:51:33;;;;;;;7.07;2.10;;;17.90;99.90;;;;;;5105403;28;20031;-74
2022/06/09 08:54:09;;;;;;;7.97;1.52;;;17.90;99.90;;;;;;5099405;28;20039;-73
2022/06/09 08:56:34;;;;;;;5.22;1.55;;;17.90;99.90;;;;;;5103916;28;20490;-75
2022/06/09 08:59:13;;;;;;;5.25;1.55;;;17.80;99.90;;;;;;5106270;28;20024;-74
2022/06/09 09:01:41;;;;;;;8.13;1.52;;;17.90;99.90;;;;;;5095788;28;20026;-73
2022/06/09 09:04:21;;;;;;;5.97;1.33;;;17.90;99.90;;;;;;5089397;28;20027;-74
2022/06/09 09:06:57;;;;;;;3.92;1.38;;;17.80;99.90;;;;;;5089529;28;20028;-73
2022/06/09 09:09:28;;;;;;;5.47;1.67;;;17.80;99.90;;;;;;5082396;28;20454;-73
2022/06/09 09:12:22;;;;;;;9.13;1.67;;;17.80;99.90;;;;;;5054613;28;20025;-73
2022/06/09 09:14:54;;;;;;;8.35;1.88;;;17.80;99.90;;;;;;5071634;28;20600;-76
2022/06/09 09:17:34;;;;;;;6.25;1.75;;;18.00;99.90;;;;;;5069832;28;20043;-76
2022/06/09 09:20:02;;;;;;;5.80;1.48;;;18.00;99.90;;;;;;5071242;28;20545;-78
2022/06/09 09:22:52;;;;;;;6.97;2.22;;;18.20;99.90;;;;;;5071010;28;20037;-80
2022/06/09 09:25:40;;;;;;;8.13;1.80;;;18.20;99.90;;;;;;5072128;28;20032;-77
2022/06/09 09:28:21;;;;;;;12.40;3.05;;;18.20;99.90;;;;;;5062347;28;20392;-77
2022/06/09 09:31:00;;;;;;;;;;;18.30;99.90;;;;;;5073404;28;20017;-77
2022/06/09 09:33:28;;;;;;;10.23;2.03;;;18.30;99.90;;;;;;5071872;28;19904;-78
2022/06/09 09:35:59;;;;;;;12.13;2.50;;;18.40;99.90;;;;;;5072603;28;20037;-76
2022/06/09 09:38:35;;;;;;;11.05;2.03;;;18.40;99.90;;;;;;5072095;28;20032;-79
2022/06/09 09:41:01;;;;;;;10.63;1.80;;;18.30;99.90;;;;;;5073072;28;20046;-79
2022/06/09 09:43:39;;;;;;;5.82;1.65;;;18.40;99.90;;;;;;5072966;28;20024;-78
2022/06/09 09:46:23;;;;;;;7.47;1.75;;;18.40;99.90;;;;;;5072474;28;20092;-77
2022/06/09 09:48:49;;;;;;;7.07;1.30;;;18.50;99.90;;;;;;5072848;28;20024;-78
2022/06/09 09:51:14;;;;;;;6.10;1.80;;;18.60;99.90;;;;;;5072960;28;20098;-78
2022/06/09 09:53:54;;;;;;;6.90;1.95;;;18.60;99.90;;;;;;5072011;28;20029;-79
2022/06/09 09:56:20;;;;;;;12.40;2.60;;;18.70;99.90;;;;;;5072903;28;20100;-78
2022/06/09 09:58:48;;;;;;;6.93;1.73;;;18.70;99.90;;;;;;5072454;28;20543;-78
2022/06/09 10:01:17;;;;;;;6.00;2.20;;;18.80;99.90;;;;;;5071651;28;20093;-78
2022/06/09 10:09:53;;;;;;;5.72;2.03;;;19.00;99.90;;;;;;5072554;28;20408;-77
2022/06/09 10:12:30;;;;;;;5.85;2.30;;;19.10;99.90;;;;;;5072668;28;20078;-77
2022/06/09 10:15:02;;;;;;;8.32;2.15;;;19.30;99.90;;;;;;5071891;28;20021;-77
2022/06/09 10:17:51;;;;;;;10.40;2.28;;;19.10;99.90;;;;;;5072405;28;20380;-78
2022/06/09 10:20:20;;;;;;;6.90;1.73;;;19.30;99.90;;;;;;5076882;28;20032;-78
2022/06/09 10:23:04;;;;;;;11.73;2.58;;;19.40;99.90;;;;;;5076515;28;20024;-78
2022/06/09 10:25:39;;;;;;;6.70;2.30;;;19.60;99.90;;;;;;5076551;28;20017;-78
2022/06/09 10:28:27;;;;;;;10.80;2.22;;;19.60;99.90;;;;;;5075707;28;20495;-79
2022/06/09 10:31:08;;;;;;;9.32;2.20;;;19.60;99.90;;;;;;5076485;28;20020;-79
2022/06/09 10:33:49;;;;;;;4.97;1.75;;;19.80;99.90;;;;;;5076553;28;20031;-78
2022/06/09 10:36:27;;;;;;;4.20;1.73;;;19.90;99.90;;;;;;5075735;28;20468;-78
2022/06/09 10:39:02;;;;;;;4.35;1.73;;;20.00;99.90;;;;;;5076131;28;20119;-78
2022/06/09 10:41:42;;;;;;;5.93;2.45;;;20.10;99.90;;;;;;5075620;28;20055;-79
2022/06/09 10:44:17;;;;;;;9.88;2.10;;;20.10;99.90;;;;;;5076147;28;20047;-78
2022/06/09 10:55:14;;;;;;;6.80;1.75;;;20.20;99.90;;;;;;5075859;28;20452;-78
2022/06/09 10:55:40;;;;;;;5.32;1.48;;;20.00;99.90;;;;;;5075852;28;20032;-78
2022/06/09 10:58:18;;;;;;;4.90;1.88;;;20.10;99.90;;;;;;5075943;28;20036;-78
2022/06/09 11:00:51;;;;;;;3.38;1.30;;;20.00;99.90;;;;;;5075587;28;20078;-77
2022/06/09 11:03:22;;;;;;;4.88;1.83;;;20.10;99.90;;;;;;5075232;28;20049;-78
2022/06/09 11:06:24;;;;;;;11.57;1.92;;;20.10;99.90;;;;;;5075541;28;20056;-78
2022/06/09 11:08:57;;;;;;;7.50;2.15;;;20.00;99.90;;;;;;5075767;28;20028;-78
2022/06/09 11:11:52;;;;;;;5.60;1.73;;;20.10;99.90;;;;;;5075124;28;20028;-78
2022/06/09 11:14:20;;;;;;;4.43;1.58;;;20.20;99.90;;;;;;5075654;28;20099;-78
2022/06/09 11:17:01;;;;;;;3.67;1.83;;;20.20;99.90;;;;;;5074807;28;20025;-78
2022/06/09 11:19:32;;;;;;;6.22;1.80;;;20.40;99.90;;;;;;5075514;28;20486;-78
2022/06/09 11:22:12;;;;;;;6.70;1.60;;;20.60;99.90;;;;;;5075369;28;20033;-78
2022/06/09 11:24:50;;;;;;;6.30;1.93;;;20.80;99.90;;;;;;5074603;28;20021;-78
2022/06/09 11:27:41;;;;;;;3.40;1.45;;;20.80;99.90;;;;;;5075388;28;20025;-78
2022/06/09 11:30:27;;;;;;;7.15;2.10;;;20.70;99.90;;;;;;5074511;28;20024;-78
2022/06/09 11:33:22;;;;;;;6.53;1.92;;;20.50;99.90;;;;;;5074534;28;20032;-78
2022/06/09 11:36:07;;;;;;;7.97;1.75;;;20.40;99.90;;;;;;5003802;28;20435;-78
2022/06/09 11:38:50;;;;;;;7.97;1.98;;;20.50;99.90;;;;;;5074219;28;20040;-78
2022/06/09 11:41:53;;;;;;;6.30;1.70;;;20.40;99.90;;;;;;5075003;28;20028;-78
2022/06/09 11:44:26;;;;;;;7.80;1.60;;;20.40;99.90;;;;;;4993426;28;20422;-78
2022/06/09 11:46:57;;;;;;;5.95;1.67;;;20.50;99.90;;;;;;5061056;28;20509;-78
2022/06/09 11:49:29;;;;;;;11.80;1.80;;;20.50;99.90;;;;;;5074853;28;20453;-78
2022/06/09 11:51:55;;;;;;;8.50;1.75;;;20.60;99.90;;;;;;5073985;28;20480;-77
2022/06/09 11:54:41;;;;;;;12.00;2.80;;;20.60;99.90;;;;;;5074952;28;20027;-78
2022/06/09 11:57:31;;;;;;;6.10;1.85;;;20.80;99.90;;;;;;5074771;28;20039;-78
2022/06/09 12:00:18;;;;;;;6.28;1.77;;;21.00;99.90;;;;;;5073849;28;20048;-77
2022/06/09 12:03:09;;;;;;;7.55;1.92;;;21.10;99.90;;;;;;5074859;28;20029;-77
2022/06/09 12:06:12;;;;;;;6.45;1.52;;;21.00;99.90;;;;;;5074560;28;20089;-77
2022/06/09 12:08:56;;;;;;;10.43;2.50;;;21.20;99.90;;;;;;5074450;28;20154;-77
2022/06/09 12:11:24;;;;;;;10.02;2.35;;;21.00;99.90;;;;;;5074465;28;20472;-77
2022/06/09 12:14:15;;;;;;;9.43;2.28;;;20.80;99.90;;;;;;5073796;28;20039;-77
2022/06/09 12:17:08;;;;;;;10.35;2.05;;;20.70;99.90;;;;;;5074324;28;20144;-78
2022/06/09 12:19:59;;;;;;;10.63;2.10;;;20.60;99.90;;;;;;5074474;28;20388;-77
2022/06/09 12:22:33;;;;;;;2.67;1.60;;;20.50;99.90;;;;;;5074444;28;20067;-77
2022/06/09 12:25:08;;;;;;;4.13;1.45;;;20.60;99.90;;;;;;5074127;28;20025;-77
2022/06/09 12:27:36;;;;;;;8.27;1.90;;;20.70;99.90;;;;;;5073366;28;20495;-77
2022/06/09 12:30:02;;;;;;;5.30;1.90;;;20.80;99.90;;;;;;5074054;28;20021;-77
2022/06/09 12:32:45;;;;;;;7.57;1.83;;;20.90;99.90;;;;;;5074123;28;20039;-77
2022/06/09 12:35:37;;;;;;;6.90;1.90;;;21.00;99.90;;;;;;5073377;28;20027;-77
2022/06/09 12:38:27;;;;;;;5.22;1.50;;;21.10;99.90;;;;;;5073859;28;20066;-77
2022/06/09 12:40:57;;;;;;;4.15;2.28;;;21.20;99.90;;;;;;5073720;28;20020;-77
2022/06/09 12:43:26;;;;;;;2.83;1.30;;;21.40;99.90;;;;;;5073356;28;20082;-77
2022/06/09 12:46:20;;;;;;;7.72;1.58;;;21.40;99.90;;;;;;5073958;28;20024;-77
2022/06/09 12:48:46;;;;;;;3.20;1.08;;;21.20;99.90;;;;;;5073344;28;20017;-75
2022/06/09 12:51:26;;;;;;;6.90;1.42;;;21.20;99.90;;;;;;5074240;28;20032;-76
2022/06/09 12:54:30;;;;;;;5.83;1.93;;;21.30;99.90;;;;;;5073697;28;20035;-76
2022/06/09 12:57:07;;;;;;;6.05;1.13;;;21.50;99.90;;;;;;5068753;28;20025;-75
2022/06/09 12:59:41;;;;;;;5.80;1.75;;;21.70;99.90;;;;;;5073535;28;20121;-76
2022/06/09 13:02:28;;;;;;;9.90;2.90;;;21.70;99.90;;;;;;5072901;28;20024;-77
2022/06/09 13:04:56;;;;;;;5.30;1.88;;;21.60;99.90;;;;;;5073639;28;20021;-77
2022/06/09 13:07:26;;;;;;;5.15;1.63;;;21.80;99.90;;;;;;5073490;28;20025;-75
2022/06/09 13:10:16;;;;;;;5.75;1.75;;;22.00;99.90;;;;;;5072785;28;20065;-75
2022/06/09 13:12:52;;;;;;;6.45;1.55;;;22.20;99.90;;;;;;5073252;28;20112;-78
2022/06/09 13:15:34;;;;;;;6.82;1.80;;;22.40;99.10;;;;;;5073448;28;20028;-78
2022/06/09 13:18:11;;;;;;;11.70;2.25;;;22.50;98.10;;;;;;5088408;28;20043;-76
2022/06/09 13:20:37;;;;;;;5.43;1.45;;;22.40;98.20;;;;;;5093512;28;20028;-78
2022/06/09 13:23:05;;;;;;;9.00;2.35;;;22.20;97.60;;;;;;5092489;28;20024;-78
2022/06/09 13:25:31;;;;;;;10.18;2.42;;;21.90;99.40;;;;;;5092416;28;20050;-77